Time;durP1;ratioP1;P1;durP2;ratioP2;P2;SDS_P1;SDS_P2;PMS_P1;PMS_P2;Temp;Humidity;BMP_temperature;BMP_pressure;BME280_temperature;BME280_humidity;BME280_pressure;Samples;Min_cycle;Max_cycle;Signal;HPM_P1;HPM_P2
2023/05/22 00:00:15;;;;;;;26.23;15.18;;;;;;;18.31;100.00;100530.19;2092704;28;20045;-71
2023/05/22 00:01:36;;;;;;;24.42;15.48;;;;;;;18.26;100.00;100534.75;2095364;28;20475;-72
2023/05/22 00:02:59;;;;;;;29.27;16.45;;;;;;;18.22;100.00;100530.38;2094922;28;20129;-72
2023/05/22 00:04:21;;;;;;;34.38;16.67;;;;;;;18.22;100.00;100535.72;2102594;28;20039;-72
2023/05/22 00:05:44;;;;;;;27.88;17.52;;;;;;;18.21;100.00;100528.63;2089450;28;20057;-72
2023/05/22 00:07:07;;;;;;;33.17;17.05;;;;;;;18.23;100.00;100536.63;2103387;28;20445;-73
2023/05/22 00:08:28;;;;;;;28.52;18.42;;;;;;;18.27;100.00;100527.63;2092047;28;20045;-72
2023/05/22 00:09:50;;;;;;;27.67;17.77;;;;;;;18.31;100.00;100534.69;2105844;28;20421;-72
2023/05/22 00:11:11;;;;;;;30.35;18.25;;;;;;;18.31;100.00;100532.00;2093655;28;20087;-72
2023/05/22 00:12:34;;;;;;;36.78;18.60;;;;;;;18.31;100.00;100538.19;2088396;28;20033;-72
2023/05/22 00:13:57;;;;;;;31.00;18.05;;;;;;;18.31;100.00;100527.50;2092718;28;20049;-72
2023/05/22 00:15:19;;;;;;;34.05;17.77;;;;;;;18.30;100.00;100528.47;2093985;28;20040;-72
2023/05/22 00:16:42;;;;;;;34.30;18.85;;;;;;;18.27;100.00;100523.16;2093591;28;20737;-72
2023/05/22 00:18:05;;;;;;;33.85;18.27;;;;;;;18.27;100.00;100528.50;2103271;28;20059;-73
2023/05/22 00:19:29;;;;;;;33.58;17.90;;;;;;;18.26;100.00;100529.41;2099018;28;20151;-73
2023/05/22 00:20:53;;;;;;;30.45;17.30;;;;;;;18.27;100.00;100528.50;2094550;28;20044;-72
2023/05/22 00:22:14;;;;;;;37.00;18.40;;;;;;;18.28;100.00;100529.38;2094097;28;20070;-73
2023/05/22 00:23:36;;;;;;;29.45;17.48;;;;;;;18.26;100.00;100528.53;2086554;28;20045;-72
2023/05/22 00:24:58;;;;;;;33.88;17.05;;;;;;;18.25;100.00;100530.31;2087980;28;20057;-72
2023/05/22 00:26:22;;;;;;;34.63;16.85;;;;;;;18.22;100.00;100526.84;2090651;28;20036;-72
2023/05/22 00:27:43;;;;;;;32.42;16.95;;;;;;;18.19;100.00;100525.09;2091296;28;20540;-72
2023/05/22 00:29:05;;;;;;;42.58;17.25;;;;;;;18.19;100.00;100532.22;2092711;28;20077;-72
2023/05/22 00:30:27;;;;;;;39.45;16.63;;;;;;;18.15;100.00;100527.84;2095174;28;20055;-71
2023/05/22 00:31:49;;;;;;;33.45;18.23;;;;;;;18.10;100.00;100519.94;2085613;28;20147;-71
2023/05/22 00:33:11;;;;;;;35.90;16.48;;;;;;;18.02;100.00;100508.50;2090977;28;20454;-72
2023/05/22 00:34:33;;;;;;;34.28;17.63;;;;;;;17.95;100.00;100520.22;2083135;28;20041;-71
2023/05/22 00:35:57;;;;;;;30.85;16.13;;;;;;;17.90;100.00;100508.75;2082809;28;20576;-72
2023/05/22 00:37:19;;;;;;;32.00;17.45;;;;;;;17.88;100.00;100516.78;2077882;28;20042;-71
2023/05/22 00:38:41;;;;;;;28.42;16.58;;;;;;;17.90;100.00;100530.13;2091283;28;20528;-72
2023/05/22 00:40:05;;;;;;;35.42;18.27;;;;;;;17.92;100.00;100531.81;2094843;28;20049;-72
2023/05/22 00:41:26;;;;;;;31.35;17.08;;;;;;;17.94;100.00;100534.47;2096544;28;20044;-72
2023/05/22 00:42:49;;;;;;;25.58;15.80;;;;;;;17.96;100.00;100539.81;2088179;28;20045;-72
2023/05/22 00:44:11;;;;;;;28.15;15.63;;;;;;;17.97;100.00;100530.88;2083203;28;20041;-72
2023/05/22 00:45:33;;;;;;;28.92;15.65;;;;;;;18.00;100.00;100529.03;2075720;28;20497;-73
2023/05/22 00:46:56;;;;;;;31.73;15.60;;;;;;;18.01;100.00;100520.09;2081286;28;20168;-72
2023/05/22 00:48:19;;;;;;;24.48;15.57;;;;;;;18.00;100.00;100510.31;2092219;28;20050;-73
2023/05/22 00:49:42;;;;;;;20.17;12.43;;;;;;;18.00;100.00;100504.09;2086319;28;20073;-73
2023/05/22 00:51:07;;;;;;;32.05;16.70;;;;;;;17.97;100.00;100501.50;2082660;28;20095;-73
2023/05/22 00:52:29;;;;;;;24.48;13.70;;;;;;;17.96;100.00;100500.63;2091765;28;20078;-73
2023/05/22 00:53:52;;;;;;;26.50;12.57;;;;;;;17.93;100.00;100493.53;2085800;28;20131;-72
2023/05/22 00:55:15;;;;;;;27.50;14.98;;;;;;;17.91;100.00;100494.50;2083669;28;20049;-73
2023/05/22 00:56:38;;;;;;;26.42;15.32;;;;;;;17.91;100.00;100487.34;2092669;28;20052;-73
2023/05/22 00:58:01;;;;;;;31.13;15.65;;;;;;;17.91;100.00;100484.69;2076440;28;20033;-72
2023/05/22 00:59:24;;;;;;;26.15;14.95;;;;;;;17.93;100.00;100489.97;2081753;28;20139;-73
2023/05/22 01:00:45;;;;;;;34.70;17.98;;;;;;;17.94;100.00;100483.72;2083693;28;20110;-73
2023/05/22 01:02:08;;;;;;;30.25;17.52;;;;;;;17.95;100.00;100482.81;2085279;28;20529;-73
2023/05/22 01:03:30;;;;;;;29.23;17.50;;;;;;;17.97;100.00;100482.81;2078281;28;20049;-72
2023/05/22 01:04:56;;;;;;;33.70;17.48;;;;;;;18.00;100.00;100474.72;2083763;28;20143;-73
2023/05/22 01:06:21;;;;;;;28.70;17.80;;;;;;;18.02;100.00;100483.59;2095111;28;20128;-72
2023/05/22 01:07:44;;;;;;;32.60;17.20;;;;;;;18.04;100.00;100485.34;2089089;28;20383;-72
2023/05/22 01:09:05;;;;;;;27.27;16.25;;;;;;;18.07;100.00;100477.25;2090598;28;20660;-72
2023/05/22 01:10:29;;;;;;;31.88;15.93;;;;;;;18.08;100.00;100478.13;2086770;28;20580;-73
2023/05/22 01:11:56;;;;;;;26.83;16.67;;;;;;;18.08;100.00;100483.47;2086428;28;20397;-72
2023/05/22 01:13:29;;;;;;;28.40;15.70;;;;;;;18.07;100.00;100482.59;2086985;28;20036;-72
2023/05/22 01:14:58;;;;;;;26.42;15.07;;;;;;;18.07;100.00;100474.56;2087760;28;20051;-72
2023/05/22 01:16:30;;;;;;;34.65;16.48;;;;;;;18.09;100.00;100479.88;2082457;28;20132;-72
2023/05/22 01:18:03;;;;;;;28.20;16.35;;;;;;;18.10;100.00;100471.84;2095960;28;20497;-73
2023/05/22 01:19:52;;;;;;;26.15;15.02;;;;;;;18.13;100.00;100482.47;2087718;28;20397;-73
2023/05/22 01:21:24;;;;;;;29.17;15.90;;;;;;;18.12;100.00;100483.38;2086978;28;20068;-73
2023/05/22 01:23:14;;;;;;;28.42;16.88;;;;;;;18.16;100.00;100493.09;2081230;28;20037;-73
2023/05/22 01:25:02;;;;;;;28.35;16.27;;;;;;;18.19;100.00;100486.78;2097093;28;20045;-73
2023/05/22 01:27:06;;;;;;;32.22;16.52;;;;;;;18.22;100.00;100487.63;2091898;28;20048;-73
2023/05/22 01:28:51;;;;;;;29.50;17.08;;;;;;;18.21;100.00;100480.53;2086699;28;20048;-73
2023/05/22 01:30:34;;;;;;;34.53;17.17;;;;;;;18.23;100.00;100481.38;2086640;28;20604;-73
2023/05/22 01:32:02;;;;;;;28.00;16.42;;;;;;;18.27;100.00;100468.81;2099386;28;20466;-74
2023/05/22 01:33:26;;;;;;;29.52;17.58;;;;;;;18.28;100.00;100474.16;2095737;28;20755;-73
2023/05/22 01:34:51;;;;;;;31.67;16.42;;;;;;;18.28;100.00;100466.13;2087824;28;20448;-72
2023/05/22 01:36:17;;;;;;;26.50;16.95;;;;;;;18.29;100.00;100467.91;2093946;28;20045;-72
2023/05/22 01:37:41;;;;;;;35.90;18.15;;;;;;;18.28;100.00;100475.94;2090534;28;20074;-72
2023/05/22 01:39:06;;;;;;;33.80;18.10;;;;;;;18.30;100.00;100476.78;2078009;28;20057;-71
2023/05/22 01:40:29;;;;;;;33.05;17.58;;;;;;;18.28;100.00;100478.59;2083938;28;20123;-71
2023/05/22 01:41:52;;;;;;;34.78;17.92;;;;;;;18.25;100.00;100475.97;2094814;28;20046;-72
2023/05/22 01:43:14;;;;;;;31.58;16.30;;;;;;;18.23;100.00;100469.81;2088611;28;20049;-72
2023/05/22 01:44:37;;;;;;;30.33;16.63;;;;;;;18.20;100.00;100464.50;2091366;28;20057;-72
2023/05/22 01:45:58;;;;;;;29.48;16.60;;;;;;;18.18;100.00;100467.22;2086309;28;20061;-72
2023/05/22 01:47:23;;;;;;;28.90;17.25;;;;;;;18.17;100.00;100456.56;2085903;28;20071;-72
2023/05/22 01:48:45;;;;;;;32.05;17.23;;;;;;;18.16;100.00;100457.47;2084074;28;20083;-72
2023/05/22 01:50:10;;;;;;;36.42;18.25;;;;;;;18.16;100.00;100450.34;2078063;28;20129;-72
2023/05/22 01:51:41;;;;;;;32.30;16.58;;;;;;;18.15;100.00;100451.25;2106061;28;20066;-72
2023/05/22 01:53:12;;;;;;;33.10;17.65;;;;;;;18.12;100.00;100451.31;2089950;28;20049;-71
2023/05/22 01:54:41;;;;;;;37.05;17.92;;;;;;;18.07;100.00;100446.97;2085799;28;20119;-72
2023/05/22 01:56:10;;;;;;;33.72;17.85;;;;;;;18.05;100.00;100452.34;2085129;28;20045;-72
2023/05/22 01:57:40;;;;;;;29.92;16.77;;;;;;;18.06;100.00;100451.44;2086712;28;20378;-72
2023/05/22 01:59:13;;;;;;;31.48;16.40;;;;;;;18.08;100.00;100460.31;2085217;28;20045;-72
2023/05/22 02:00:42;;;;;;;35.40;18.15;;;;;;;18.08;100.00;100454.06;2079620;28;20488;-72
2023/05/22 02:02:06;;;;;;;36.88;15.80;;;;;;;18.08;100.00;100452.28;2076684;28;20391;-72
2023/05/22 02:03:32;;;;;;;35.80;17.80;;;;;;;18.10;100.00;100461.16;2088697;28;20052;-72
2023/05/22 02:04:58;;;;;;;32.22;17.33;;;;;;;18.11;100.00;100457.59;2094357;28;20051;-72
2023/05/22 02:06:20;;;;;;;36.08;18.10;;;;;;;18.11;100.00;100457.59;2102722;28;20420;-72
2023/05/22 02:07:42;;;;;;;34.08;16.88;;;;;;;18.12;100.00;100448.63;2088514;28;20593;-73
2023/05/22 02:09:06;;;;;;;38.25;19.63;;;;;;;18.14;100.00;100445.94;2085465;28;20061;-73
2023/05/22 02:10:31;;;;;;;31.35;17.63;;;;;;;18.13;100.00;100450.41;2079579;28;20042;-72
2023/05/22 02:11:54;;;;;;;31.73;16.98;;;;;;;18.14;100.00;100452.16;2083199;28;20045;-72
2023/05/22 02:13:16;;;;;;;33.08;17.73;;;;;;;18.13;100.00;100445.06;2085200;28;20086;-72
2023/05/22 02:14:38;;;;;;;35.38;18.70;;;;;;;18.14;100.00;100456.63;2082534;28;20048;-72
2023/05/22 02:16:00;;;;;;;38.08;20.55;;;;;;;18.14;100.00;100460.19;2071564;28;20521;-72
2023/05/22 02:17:23;;;;;;;36.60;18.42;;;;;;;18.16;100.00;100450.34;2077826;28;20045;-73
2023/05/22 02:18:46;;;;;;;35.25;17.90;;;;;;;18.18;100.00;100451.19;2083308;28;20040;-73
2023/05/22 02:20:13;;;;;;;37.80;19.10;;;;;;;18.20;100.00;100457.38;2084791;28;20144;-73
2023/05/22 02:21:37;;;;;;;31.92;17.98;;;;;;;18.22;100.00;100452.91;2095723;28;20052;-73
2023/05/22 02:22:59;;;;;;;35.60;19.20;;;;;;;18.23;100.00;100457.34;2081557;28;20086;-73
2023/05/22 02:24:22;;;;;;;41.78;20.05;;;;;;;18.24;100.00;100452.88;2094182;28;20161;-73
2023/05/22 02:25:45;;;;;;;40.33;19.70;;;;;;;18.20;100.00;100454.72;2083750;28;20053;-73
2023/05/22 02:27:06;;;;;;;35.55;19.13;;;;;;;18.19;100.00;100449.38;2094966;28;20040;-73
2023/05/22 02:28:28;;;;;;;39.35;19.92;;;;;;;18.16;100.00;100452.13;2090376;28;20110;-72
2023/05/22 02:29:50;;;;;;;34.55;18.52;;;;;;;18.17;100.00;100453.91;2086402;28;20045;-73
2023/05/22 02:31:13;;;;;;;34.83;18.92;;;;;;;18.16;100.00;100452.13;2102577;28;20121;-73
2023/05/22 02:32:35;;;;;;;36.85;20.85;;;;;;;18.17;100.00;100454.78;2085004;28;20049;-72
2023/05/22 02:34:00;;;;;;;36.20;19.17;;;;;;;18.18;100.00;100447.66;2083370;28;20044;-73
2023/05/22 02:35:21;;;;;;;38.10;19.92;;;;;;;18.20;100.00;100451.16;2083416;28;20100;-73
2023/05/22 02:36:44;;;;;;;36.47;18.60;;;;;;;18.19;100.00;100452.94;2082929;28;20102;-72
2023/05/22 02:38:08;;;;;;;37.28;20.35;;;;;;;18.19;100.00;100450.28;2080300;28;20045;-73
2023/05/22 02:39:29;;;;;;;35.47;19.13;;;;;;;18.20;100.00;100451.16;2085474;28;20049;-73
2023/05/22 02:40:52;;;;;;;32.85;18.15;;;;;;;18.20;100.00;100456.50;2089216;28;20048;-73
2023/05/22 02:42:14;;;;;;;30.30;16.88;;;;;;;18.19;100.00;100452.94;2084246;28;20371;-73
2023/05/22 02:43:35;;;;;;;35.67;18.77;;;;;;;18.18;100.00;100461.88;2074665;28;20136;-73
2023/05/22 02:44:58;;;;;;;38.00;19.33;;;;;;;18.17;100.00;100457.47;2091147;28;20152;-73
2023/05/22 02:46:19;;;;;;;40.75;19.98;;;;;;;18.16;100.00;100455.69;2088137;28;20049;-73
2023/05/22 02:47:42;;;;;;;39.55;20.00;;;;;;;18.17;100.00;100462.81;2077102;28;20045;-73
2023/05/22 02:49:05;;;;;;;37.42;18.25;;;;;;;18.18;100.00;100458.34;2080845;28;20554;-73
2023/05/22 02:50:27;;;;;;;33.90;17.48;;;;;;;18.17;100.00;100453.91;2082059;28;20045;-73
2023/05/22 02:51:50;;;;;;;37.25;20.52;;;;;;;18.17;100.00;100454.78;2074846;28;20061;-72
2023/05/22 02:53:13;;;;;;;37.45;19.83;;;;;;;18.17;100.00;100459.25;2075754;28;20136;-73
2023/05/22 02:54:35;;;;;;;33.40;18.95;;;;;;;18.17;100.00;100456.56;2075998;28;20593;-72
2023/05/22 02:55:59;;;;;;;36.25;19.27;;;;;;;18.16;100.00;100454.81;2073478;28;20072;-73
2023/05/22 02:57:21;;;;;;;33.95;18.25;;;;;;;18.15;100.00;100461.94;2080895;28;20041;-72
2023/05/22 02:58:44;;;;;;;31.63;18.15;;;;;;;18.14;100.00;100461.97;2082866;28;20060;-73
2023/05/22 03:00:10;;;;;;;34.67;18.48;;;;;;;18.12;100.00;100462.00;2089005;28;20047;-73
2023/05/22 03:01:33;;;;;;;35.63;18.98;;;;;;;18.12;100.00;100463.78;2085285;28;20045;-73
2023/05/22 03:02:54;;;;;;;29.83;17.02;;;;;;;18.11;100.00;100467.38;2091545;28;20513;-73
2023/05/22 03:04:18;;;;;;;34.33;17.27;;;;;;;18.10;100.00;100469.19;2087260;28;20048;-73
2023/05/22 03:05:41;;;;;;;30.27;17.58;;;;;;;18.11;100.00;100460.25;2082588;28;20183;-73
2023/05/22 03:07:02;;;;;;;39.60;18.42;;;;;;;18.11;100.00;100456.69;2083517;28;20521;-73
2023/05/22 03:08:26;;;;;;;33.17;18.33;;;;;;;18.11;100.00;100457.59;2089179;28;20052;-74
2023/05/22 03:09:48;;;;;;;27.45;17.42;;;;;;;18.13;100.00;100455.75;2085733;28;20416;-73
2023/05/22 03:11:11;;;;;;;35.05;17.92;;;;;;;18.14;100.00;100448.59;2085915;28;20088;-73
2023/05/22 03:12:32;;;;;;;34.50;19.02;;;;;;;18.15;100.00;100453.03;2091483;28;20044;-73
2023/05/22 03:13:55;;;;;;;35.15;19.13;;;;;;;18.14;100.00;100444.16;2085458;28;20046;-73
2023/05/22 03:15:16;;;;;;;37.85;20.45;;;;;;;18.14;100.00;100446.81;2085447;28;20053;-73
2023/05/22 03:16:40;;;;;;;39.65;20.02;;;;;;;18.15;100.00;100445.03;2074916;28;20049;-73
2023/05/22 03:18:03;;;;;;;43.50;20.58;;;;;;;18.16;100.00;100449.47;2090993;28;20048;-73
2023/05/22 03:19:25;;;;;;;33.45;19.60;;;;;;;18.17;100.00;100449.44;2080573;28;20037;-73
2023/05/22 03:20:48;;;;;;;42.70;21.90;;;;;;;18.16;100.00;100450.34;2083062;28;20061;-73
2023/05/22 03:22:11;;;;;;;41.88;21.67;;;;;;;18.16;100.00;100450.34;2084541;28;20672;-73
2023/05/22 03:23:34;;;;;;;34.58;20.95;;;;;;;18.16;100.00;100438.78;2079003;28;20080;-73
2023/05/22 03:24:55;;;;;;;36.95;19.63;;;;;;;18.15;100.00;100453.03;2092772;28;20079;-73
2023/05/22 03:26:18;;;;;;;33.03;17.38;;;;;;;18.13;100.00;100453.06;2086661;28;20084;-73
2023/05/22 03:27:39;;;;;;;31.13;17.95;;;;;;;18.13;100.00;100453.06;2076254;28;20172;-73
2023/05/22 03:29:02;;;;;;;;;;;;;;;18.12;100.00;100464.66;2073858;28;20041;-73
2023/05/22 03:30:25;;;;;;;33.20;17.05;;;;;;;18.11;100.00;100462.06;2085024;28;20265;-73
2023/05/22 03:32:03;;;;;;;29.10;17.30;;;;;;;18.10;100.00;100453.16;2089604;28;20045;-73
2023/05/22 03:33:26;;;;;;;29.10;17.52;;;;;;;18.13;100.00;100463.75;2087140;28;20151;-73
2023/05/22 03:34:49;;;;;;;30.00;17.17;;;;;;;18.14;100.00;100462.84;2083944;28;20053;-73
2023/05/22 03:36:11;;;;;;;32.78;17.40;;;;;;;18.15;100.00;100463.72;2103375;28;20036;-73
2023/05/22 03:37:34;;;;;;;33.97;17.52;;;;;;;18.16;100.00;100465.50;2092202;28;20662;-73
2023/05/22 03:38:56;;;;;;;28.50;17.25;;;;;;;18.16;100.00;100461.03;2089986;28;20141;-73
2023/05/22 03:40:19;;;;;;;31.45;16.48;;;;;;;18.17;100.00;100457.47;2084360;28;20052;-73
2023/05/22 03:41:41;;;;;;;30.27;18.15;;;;;;;18.18;100.00;100458.34;2083607;28;20447;-74
2023/05/22 03:43:04;;;;;;;30.67;16.17;;;;;;;18.18;100.00;100458.34;2084688;28;20053;-75
2023/05/22 03:44:25;;;;;;;29.38;18.38;;;;;;;18.16;100.00;100458.38;2103657;28;20038;-74
2023/05/22 03:45:49;;;;;;;31.80;19.65;;;;;;;18.17;100.00;100461.91;2089619;28;20095;-73
2023/05/22 03:47:11;;;;;;;32.88;19.75;;;;;;;18.15;100.00;100459.28;2087269;28;20053;-74
2023/05/22 03:48:34;;;;;;;31.48;20.25;;;;;;;18.16;100.00;100462.81;2095136;28;20051;-74
2023/05/22 03:49:59;;;;;;;31.05;19.20;;;;;;;18.17;100.00;100456.56;2087162;28;20052;-72
2023/05/22 03:51:20;;;;;;;32.15;18.33;;;;;;;18.17;100.00;100461.91;2090828;28;20049;-73
2023/05/22 03:52:43;;;;;;;29.65;17.30;;;;;;;18.18;100.00;100469.03;2084227;28;20049;-73
2023/05/22 03:54:05;;;;;;;28.38;16.30;;;;;;;18.16;100.00;100468.16;2076393;28;20140;-73
2023/05/22 03:55:29;;;;;;;30.60;16.70;;;;;;;18.17;100.00;100473.50;2084366;28;20080;-73
2023/05/22 03:56:52;;;;;;;32.20;17.25;;;;;;;18.17;100.00;100478.84;2084969;28;20045;-74
2023/05/22 03:58:15;;;;;;;29.83;17.20;;;;;;;18.20;100.00;100483.22;2082183;28;20147;-73
2023/05/22 03:59:37;;;;;;;29.52;16.98;;;;;;;18.20;100.00;100478.75;2084279;28;20124;-73
2023/05/22 04:00:59;;;;;;;29.00;17.20;;;;;;;18.22;100.00;100474.28;2101026;28;20048;-73
2023/05/22 04:02:25;;;;;;;30.85;18.10;;;;;;;18.22;100.00;100487.63;2089595;28;20135;-73
2023/05/22 04:03:46;;;;;;;27.58;17.95;;;;;;;18.19;100.00;100485.00;2101565;28;20570;-73
2023/05/22 04:05:10;;;;;;;31.02;18.98;;;;;;;18.21;100.00;100484.97;2091875;28;20045;-73
2023/05/22 04:06:31;;;;;;;28.77;16.38;;;;;;;18.21;100.00;100485.88;2084816;28;20472;-72
2023/05/22 04:07:54;;;;;;;31.67;18.27;;;;;;;18.23;100.00;100484.06;2091206;28;20036;-73
2023/05/22 04:09:15;;;;;;;30.83;18.20;;;;;;;18.22;100.00;100487.63;2095110;28;20064;-73
2023/05/22 04:10:38;;;;;;;30.35;17.92;;;;;;;18.23;100.00;100493.88;2092576;28;20059;-73
2023/05/22 04:12:02;;;;;;;22.85;15.85;;;;;;;18.23;100.00;100497.41;2090340;28;20064;-73
2023/05/22 04:13:25;;;;;;;28.35;16.20;;;;;;;18.23;100.00;100497.41;2092839;28;20045;-73
2023/05/22 04:14:48;;;;;;;29.23;16.58;;;;;;;18.24;100.00;100499.19;2089411;28;20144;-73
2023/05/22 04:16:09;;;;;;;28.35;16.00;;;;;;;18.25;100.00;100500.03;2103381;28;20052;-73
2023/05/22 04:17:34;;;;;;;29.10;16.50;;;;;;;18.25;100.00;100508.94;2094587;28;20070;-73
2023/05/22 04:18:56;;;;;;;25.90;15.60;;;;;;;18.27;100.00;100506.25;2088413;28;20056;-73
2023/05/22 04:20:21;;;;;;;30.67;16.90;;;;;;;18.29;100.00;100512.44;2086094;28;20497;-73
2023/05/22 04:21:44;;;;;;;25.20;15.77;;;;;;;18.29;100.00;100507.09;2084646;28;20049;-73
2023/05/22 04:23:06;;;;;;;25.17;15.80;;;;;;;18.29;100.00;100502.63;2087171;28;20056;-73
2023/05/22 04:24:29;;;;;;;28.77;16.02;;;;;;;18.30;100.00;100507.06;2085872;28;20576;-73
2023/05/22 04:25:52;;;;;;;29.95;15.63;;;;;;;18.30;100.00;100504.41;2084170;28;20398;-73
2023/05/22 04:27:14;;;;;;;27.88;15.18;;;;;;;18.32;100.00;100501.66;2086318;28;20044;-73
2023/05/22 04:28:39;;;;;;;26.58;15.77;;;;;;;18.34;100.00;100510.56;2093081;28;20485;-73
2023/05/22 04:30:03;;;;;;;22.48;14.23;;;;;;;18.34;100.00;100507.88;2092628;28;20503;-73
2023/05/22 04:31:26;;;;;;;26.17;15.13;;;;;;;18.35;100.00;100506.97;2090649;28;20067;-73
2023/05/22 04:32:48;;;;;;;22.42;15.07;;;;;;;18.37;100.00;100513.19;2109212;28;20054;-73
2023/05/22 04:34:11;;;;;;;26.73;14.60;;;;;;;18.38;100.00;100508.72;2096036;28;20504;-73
2023/05/22 04:35:35;;;;;;;26.67;14.70;;;;;;;18.40;100.00;100515.78;2086921;28;20063;-73
2023/05/22 04:37:02;;;;;;;24.42;14.75;;;;;;;18.40;100.00;100510.41;2093080;28;20076;-73
2023/05/22 04:38:25;;;;;;;23.25;15.52;;;;;;;18.39;100.00;100511.31;2085763;28;20041;-72
2023/05/22 04:39:51;;;;;;;23.65;15.30;;;;;;;18.40;100.00;100512.22;2083935;28;20056;-73
2023/05/22 04:41:16;;;;;;;25.88;16.25;;;;;;;18.41;100.00;100513.97;2084844;28;20087;-73
2023/05/22 04:42:38;;;;;;;26.65;15.98;;;;;;;18.43;100.00;100518.41;2083871;28;20095;-73
2023/05/22 04:44:02;;;;;;;26.70;16.02;;;;;;;18.44;100.00;100520.16;2092293;28;20056;-73
2023/05/22 04:45:24;;;;;;;26.88;15.10;;;;;;;18.47;100.00;100516.53;2094776;28;20101;-73
2023/05/22 04:46:46;;;;;;;25.10;15.05;;;;;;;18.47;100.00;100524.53;2096098;28;20051;-73
2023/05/22 04:48:10;;;;;;;23.95;14.88;;;;;;;18.47;100.00;100519.19;2093929;28;20052;-73
2023/05/22 04:49:32;;;;;;;21.45;13.65;;;;;;;18.48;100.00;100527.19;2080450;28;20061;-74
2023/05/22 04:50:57;;;;;;;27.05;14.82;;;;;;;18.50;100.00;100524.50;2100564;28;20044;-73
2023/05/22 04:52:18;;;;;;;28.70;15.40;;;;;;;18.50;100.00;100521.81;2088405;28;20053;-73
2023/05/22 04:53:41;;;;;;;26.38;14.55;;;;;;;18.51;100.00;100524.44;2082619;28;20119;-73
2023/05/22 04:55:05;;;;;;;28.02;14.68;;;;;;;18.50;100.00;100517.34;2083963;28;20045;-73
2023/05/22 04:56:29;;;;;;;22.20;14.85;;;;;;;18.51;100.00;100521.75;2084396;28;20048;-73
2023/05/22 04:57:51;;;;;;;22.50;13.45;;;;;;;18.53;100.00;100522.63;2091701;28;20045;-73
2023/05/22 04:59:15;;;;;;;24.10;13.23;;;;;;;18.56;100.00;100524.41;2077387;28;20049;-73
2023/05/22 05:00:38;;;;;;;21.35;13.18;;;;;;;18.58;100.00;100528.78;2094155;28;20048;-73
2023/05/22 05:01:59;;;;;;;24.80;12.90;;;;;;;18.60;100.00;100531.44;2087965;28;20036;-73
2023/05/22 05:03:22;;;;;;;22.30;13.68;;;;;;;18.61;100.00;100535.88;2090811;28;20637;-73
2023/05/22 05:04:45;;;;;;;23.13;13.10;;;;;;;18.62;100.00;100530.50;2082307;28;20156;-73
2023/05/22 05:06:11;;;;;;;20.25;12.50;;;;;;;18.62;100.00;100532.28;2082597;28;20052;-72
2023/05/22 05:07:38;;;;;;;22.95;12.95;;;;;;;18.62;100.00;100532.28;2084090;28;20528;-73
2023/05/22 05:09:00;;;;;;;21.75;12.57;;;;;;;18.60;100.00;100535.00;2083592;28;20417;-73
2023/05/22 05:10:23;;;;;;;24.17;12.68;;;;;;;18.60;100.00;100532.31;2083145;28;20492;-73
2023/05/22 05:11:45;;;;;;;22.75;12.90;;;;;;;18.62;100.00;100530.50;2083826;28;20504;-73
2023/05/22 05:13:08;;;;;;;24.25;12.77;;;;;;;18.65;100.00;100530.41;2085747;28;20069;-73
2023/05/22 05:14:33;;;;;;;27.48;14.48;;;;;;;18.67;100.00;100527.72;2092413;28;20488;-73
2023/05/22 05:15:57;;;;;;;23.25;13.43;;;;;;;18.71;100.00;100529.41;2084982;28;20156;-73
2023/05/22 05:17:19;;;;;;;24.33;13.20;;;;;;;18.75;100.00;100519.53;2097411;28;20625;-73
2023/05/22 05:18:41;;;;;;;22.20;12.48;;;;;;;18.78;100.00;100522.13;2084316;28;20230;-73
2023/05/22 05:20:06;;;;;;;20.38;12.27;;;;;;;18.83;100.00;100530.94;2080886;28;20737;-73
2023/05/22 05:21:30;;;;;;;19.40;12.07;;;;;;;18.87;100.00;100525.50;2075792;28;20045;-72
2023/05/22 05:22:55;;;;;;;20.25;12.07;;;;;;;18.90;100.00;100528.13;2081364;28;20068;-72
2023/05/22 05:24:18;;;;;;;21.70;11.43;;;;;;;18.93;100.00;100530.69;2091844;28;20052;-73
2023/05/22 05:25:41;;;;;;;19.83;12.75;;;;;;;18.97;100.00;100532.38;2101795;28;20051;-73
2023/05/22 05:27:03;;;;;;;22.10;12.30;;;;;;;18.99;100.00;100537.72;2088836;28;20036;-73
2023/05/22 05:28:25;;;;;;;24.25;12.57;;;;;;;18.98;100.00;100536.81;2085794;28;20083;-73
2023/05/22 05:29:48;;;;;;;21.05;11.93;;;;;;;19.01;100.00;100536.78;2083933;28;20041;-73
2023/05/22 05:31:19;;;;;;;19.65;10.73;;;;;;;19.04;100.00;100543.81;2083271;28;20053;-73
2023/05/22 05:32:53;;;;;;;18.63;11.02;;;;;;;19.00;100.00;100548.38;2086542;28;20106;-73
2023/05/22 05:34:42;;;;;;;16.63;10.25;;;;;;;18.98;100.00;100533.28;2083178;28;20165;-73
2023/05/22 05:36:22;;;;;;;21.38;10.85;;;;;;;18.97;100.00;100529.72;2081066;28;20224;-73
2023/05/22 05:37:46;;;;;;;16.88;10.65;;;;;;;18.99;100.00;100518.97;2083182;28;20049;-72
2023/05/22 05:39:09;;;;;;;27.30;11.95;;;;;;;19.03;100.00;100523.38;2080181;28;20124;-73
2023/05/22 05:40:32;;;;;;;18.98;10.73;;;;;;;19.05;100.00;100534.91;2081304;28;20052;-72
2023/05/22 05:41:55;;;;;;;19.98;10.80;;;;;;;19.05;100.00;100533.09;2082676;28;20513;-73
2023/05/22 05:43:19;;;;;;;19.38;10.95;;;;;;;19.08;100.00;100535.72;2088820;28;20493;-73
2023/05/22 05:44:41;;;;;;;23.67;10.98;;;;;;;19.07;100.00;100539.31;2086451;28;20171;-73
2023/05/22 05:46:04;;;;;;;20.92;11.20;;;;;;;19.10;100.00;100538.34;2099635;28;20048;-73
2023/05/22 05:47:28;;;;;;;21.23;11.32;;;;;;;19.11;100.00;100538.31;2088573;28;20142;-73
2023/05/22 05:48:52;;;;;;;21.48;10.88;;;;;;;19.13;100.00;100540.97;2086374;28;20060;-73
2023/05/22 05:50:16;;;;;;;22.40;11.32;;;;;;;19.14;100.00;100549.88;2094192;28;20455;-73
2023/05/22 05:51:38;;;;;;;20.08;11.02;;;;;;;19.13;100.00;100540.97;2080385;28;20068;-73
2023/05/22 05:53:03;;;;;;;19.65;11.00;;;;;;;19.16;100.00;100543.56;2092162;28;20586;-73
2023/05/22 05:54:26;;;;;;;21.65;10.32;;;;;;;19.18;100.00;100540.84;2080491;28;20103;-73
2023/05/22 05:55:51;;;;;;;22.88;11.02;;;;;;;19.19;100.00;100538.13;2083833;28;20059;-73
2023/05/22 05:57:14;;;;;;;21.30;10.77;;;;;;;19.22;100.00;100537.19;2089495;28;20694;-73
2023/05/22 05:58:36;;;;;;;20.98;10.57;;;;;;;19.22;100.00;100542.56;2088557;28;20055;-73
2023/05/22 06:00:21;;;;;;;20.15;10.50;;;;;;;19.23;100.00;100534.47;2080096;28;20100;-73
2023/05/22 06:01:46;;;;;;;21.58;10.13;;;;;;;19.24;100.00;100533.53;2087028;28;20094;-73
2023/05/22 06:03:16;;;;;;;21.95;10.52;;;;;;;19.25;100.00;100532.63;2086877;28;20493;-73
2023/05/22 06:04:48;;;;;;;19.08;10.02;;;;;;;19.26;100.00;100536.19;2085671;28;20079;-73
2023/05/22 06:06:12;;;;;;;19.05;10.35;;;;;;;19.26;100.00;100534.41;2084169;28;20053;-72
2023/05/22 06:07:53;;;;;;;20.95;9.70;;;;;;;19.28;100.00;100532.56;2096639;28;20106;-73
2023/05/22 06:09:17;;;;;;;22.65;10.52;;;;;;;19.29;100.00;100526.31;2085982;28;20051;-73
2023/05/22 06:11:02;;;;;;;21.00;10.40;;;;;;;19.33;100.00;100529.78;2086651;28;20464;-73
2023/05/22 06:12:28;;;;;;;20.40;10.05;;;;;;;19.35;100.00;100527.97;2100185;28;20155;-72
2023/05/22 06:13:51;;;;;;;18.20;9.40;;;;;;;19.37;100.00;100528.78;2087641;28;20463;-72
2023/05/22 06:15:13;;;;;;;21.45;9.98;;;;;;;19.43;100.00;100528.63;2085675;28;20063;-72
2023/05/22 06:16:36;;;;;;;19.23;9.10;;;;;;;19.46;100.00;100523.25;2084968;28;20074;-72
2023/05/22 06:17:59;;;;;;;19.92;10.02;;;;;;;19.52;100.00;100525.78;2091298;28;20098;-72
2023/05/22 06:19:21;;;;;;;19.98;9.55;;;;;;;19.58;100.00;100522.94;2091254;28;20048;-71